createdAt,value
2019-03-02T00:01:05.205Z,16.47
2019-03-02T00:03:35.779Z,15.60
2019-03-02T00:06:05.547Z,15.87
2019-03-02T00:08:34.841Z,17.30
2019-03-02T00:11:03.856Z,16.87
2019-03-02T00:13:33.381Z,16.93
2019-03-02T00:16:04.357Z,17.47
2019-03-02T00:18:32.940Z,15.17
2019-03-02T00:21:02.832Z,16.80
2019-03-02T00:23:32.014Z,16.47
2019-03-02T00:26:01.286Z,19.20
2019-03-02T00:28:32.683Z,17.43
2019-03-02T00:31:01.468Z,16.40
2019-03-02T00:33:30.429Z,15.30
2019-03-02T00:35:59.344Z,17.20
2019-03-02T00:38:28.532Z,18.50
2019-03-02T00:40:57.737Z,19.90
2019-03-02T00:43:27.223Z,17.33
2019-03-02T00:45:57.512Z,17.97
2019-03-02T00:48:26.750Z,17.57
2019-03-02T00:50:55.786Z,17.30
2019-03-02T00:53:25.013Z,18.37
2019-03-02T00:55:54.263Z,21.30
2019-03-02T00:58:25.690Z,19.20
2019-03-02T01:00:55.004Z,19.47
2019-03-02T01:03:24.065Z,18.90
2019-03-02T01:05:53.292Z,20.17
2019-03-02T01:08:22.288Z,18.00
2019-03-02T01:10:54.751Z,19.47
2019-03-02T01:13:23.093Z,18.87
2019-03-02T01:15:52.088Z,17.90
2019-03-02T01:18:21.284Z,20.43
2019-03-02T01:20:50.265Z,18.47
2019-03-02T01:23:19.478Z,20.20
2019-03-02T01:25:48.919Z,19.53
2019-03-02T01:28:18.640Z,17.63
2019-03-02T01:30:47.982Z,17.20
2019-03-02T01:33:17.160Z,21.90
2019-03-02T01:35:46.189Z,19.80
2019-03-02T01:38:15.675Z,20.20
2019-03-02T01:40:46.009Z,19.63
2019-03-02T01:43:14.976Z,18.57
2019-03-02T01:45:44.310Z,17.90
2019-03-02T01:48:13.502Z,19.30
2019-03-02T01:50:43.854Z,19.67
2019-03-02T01:53:13.060Z,17.60
2019-03-02T01:55:42.270Z,18.53
2019-03-02T01:58:11.553Z,19.90
2019-03-02T02:00:40.840Z,20.60
2019-03-02T02:03:12.123Z,18.77
2019-03-02T02:05:41.062Z,20.40
2019-03-02T02:08:10.010Z,20.37
2019-03-02T02:10:39.868Z,18.20
2019-03-02T02:13:10.162Z,20.03
2019-03-02T02:15:39.427Z,19.77
2019-03-02T02:18:08.604Z,20.00
2019-03-02T02:20:37.629Z,20.97
2019-03-02T02:23:09.768Z,21.07
2019-03-02T02:25:37.225Z,18.40
2019-03-02T02:28:06.188Z,20.97
2019-03-02T02:30:35.413Z,18.47
2019-03-02T02:33:05.961Z,20.90
2019-03-02T02:35:39.799Z,19.80
2019-03-02T02:38:06.202Z,21.30
2019-03-02T02:40:35.459Z,22.70
2019-03-02T02:43:04.663Z,20.00
2019-03-02T02:45:33.565Z,19.80
2019-03-02T02:48:02.500Z,20.77
2019-03-02T02:50:31.653Z,21.60
2019-03-02T02:53:06.682Z,22.80
2019-03-02T02:55:36.037Z,23.70
2019-03-02T02:58:03.117Z,20.90
2019-03-02T03:00:32.617Z,22.10
2019-03-02T03:03:01.897Z,23.50
2019-03-02T03:05:30.887Z,22.47
2019-03-02T03:07:59.987Z,21.00
2019-03-02T03:10:34.333Z,23.57
2019-03-02T03:13:04.275Z,23.73
2019-03-02T03:15:38.815Z,22.97
2019-03-02T03:18:12.308Z,25.77
2019-03-02T03:20:47.949Z,22.60
2019-03-02T03:23:10.476Z,24.13
2019-03-02T03:25:39.418Z,20.80
2019-03-02T03:28:08.292Z,24.70
2019-03-02T03:30:39.741Z,23.17
2019-03-02T03:33:07.829Z,23.33
2019-03-02T03:35:37.237Z,22.90
2019-03-02T03:38:06.901Z,24.67
2019-03-02T03:40:35.877Z,23.90
2019-03-02T03:43:05.204Z,24.63
2019-03-02T03:45:42.127Z,24.63
2019-03-02T03:48:05.713Z,23.10
2019-03-02T03:50:34.716Z,21.70
2019-03-02T03:53:03.692Z,23.97
2019-03-02T03:55:33.217Z,23.63
2019-03-02T03:58:02.690Z,24.53
2019-03-02T04:00:34.265Z,24.87
2019-03-02T04:03:03.131Z,22.70
2019-03-02T04:05:32.094Z,22.50
2019-03-02T04:08:01.032Z,23.37
2019-03-02T04:10:30.314Z,23.23
2019-03-02T04:13:04.851Z,23.67
2019-03-02T04:15:40.991Z,23.87
2019-03-02T04:18:02.922Z,25.57
2019-03-02T04:20:33.747Z,23.93
2019-03-02T04:23:03.962Z,24.77
2019-03-02T04:25:32.923Z,23.83
2019-03-02T04:28:02.531Z,25.30
2019-03-02T04:30:32.814Z,23.87
2019-03-02T04:33:05.843Z,24.13
2019-03-02T04:35:33.865Z,25.77
2019-03-02T04:38:03.757Z,26.77
2019-03-02T04:40:32.761Z,23.53
2019-03-02T04:43:02.050Z,25.33
2019-03-02T04:45:30.975Z,26.57
2019-03-02T04:48:03.293Z,26.17
2019-03-02T04:50:30.835Z,24.83
2019-03-02T04:53:00.065Z,24.07
2019-03-02T04:55:30.586Z,23.50
2019-03-02T04:58:00.548Z,23.57
2019-03-02T05:00:32.045Z,24.33
2019-03-02T05:03:00.913Z,23.80
2019-03-02T05:05:30.198Z,23.50
2019-03-02T05:08:01.949Z,26.83
2019-03-02T05:10:30.488Z,21.50
2019-03-02T05:12:59.749Z,26.90
2019-03-02T05:15:29.036Z,24.10
2019-03-02T05:17:58.618Z,23.20
2019-03-02T05:20:27.902Z,24.40
2019-03-02T05:22:56.877Z,23.20
2019-03-02T05:25:26.123Z,21.97
2019-03-02T05:27:55.345Z,22.73
2019-03-02T05:30:26.724Z,21.70
2019-03-02T05:32:55.264Z,24.80
2019-03-02T05:35:24.171Z,23.77
2019-03-02T05:37:53.468Z,23.90
2019-03-02T05:40:24.515Z,23.10
2019-03-02T05:42:53.313Z,24.50
2019-03-02T05:45:23.830Z,21.20
2019-03-02T05:47:52.863Z,23.60
2019-03-02T05:50:22.081Z,22.90
2019-03-02T05:52:54.228Z,22.40
2019-03-02T05:55:21.709Z,22.47
2019-03-02T05:57:50.774Z,23.57
2019-03-02T06:00:20.970Z,21.10
2019-03-02T06:02:49.897Z,21.43
2019-03-02T06:05:19.211Z,20.33
2019-03-02T06:07:48.449Z,19.10
2019-03-02T06:10:21.695Z,20.90
2019-03-02T06:12:51.592Z,20.77
2019-03-02T06:15:20.120Z,18.83
2019-03-02T06:17:49.332Z,21.00
2019-03-02T06:20:18.295Z,18.40
2019-03-02T06:22:47.486Z,18.80
2019-03-02T06:25:21.115Z,18.80
2019-03-02T06:27:54.405Z,18.40
2019-03-02T06:30:23.353Z,18.70
2019-03-02T06:32:52.713Z,17.17
2019-03-02T06:35:21.723Z,20.33
2019-03-02T06:37:52.982Z,18.60
2019-03-02T06:40:23.600Z,17.70
2019-03-02T06:42:53.874Z,22.87
2019-03-02T06:45:22.553Z,23.87
2019-03-02T06:47:51.742Z,21.47
2019-03-02T06:50:21.101Z,21.27
2019-03-02T06:52:50.121Z,22.60
2019-03-02T06:55:20.790Z,23.20
2019-03-02T06:57:51.577Z,23.07
2019-03-02T07:00:20.617Z,21.80
2019-03-02T07:02:49.568Z,22.23
2019-03-02T07:05:18.577Z,22.57
2019-03-02T07:07:47.602Z,25.30
2019-03-02T07:10:17.784Z,23.20
2019-03-02T07:12:48.014Z,24.47
2019-03-02T07:15:18.893Z,23.07
2019-03-02T07:18:22.523Z,25.00
2019-03-02T07:20:51.467Z,24.27
2019-03-02T07:23:20.845Z,24.20
2019-03-02T07:25:49.833Z,23.40
2019-03-02T07:28:19.169Z,25.30
2019-03-02T07:30:48.535Z,25.47
2019-03-02T07:33:17.669Z,25.60
2019-03-02T07:35:46.914Z,27.60
2019-03-02T07:38:16.969Z,25.63
2019-03-02T07:40:47.152Z,25.30
2019-03-02T07:43:16.513Z,24.50
2019-03-02T07:45:45.626Z,25.47
2019-03-02T07:48:14.944Z,25.00
2019-03-02T07:50:44.549Z,25.13
2019-03-02T07:53:13.771Z,24.30
2019-03-02T07:55:43.035Z,24.97
2019-03-02T07:58:12.892Z,23.07
2019-03-02T08:00:42.216Z,23.40
2019-03-02T08:03:11.871Z,25.23
2019-03-02T08:05:41.277Z,24.93
2019-03-02T08:08:10.846Z,24.53
2019-03-02T08:10:41.330Z,25.00
2019-03-02T08:13:10.277Z,21.80
2019-03-02T08:15:39.694Z,22.97
2019-03-02T08:18:08.724Z,24.80
2019-03-02T08:20:38.069Z,21.80
2019-03-02T08:23:07.437Z,22.07
2019-03-02T08:25:36.449Z,21.00
2019-03-02T08:28:06.750Z,22.70
2019-03-02T08:30:36.455Z,23.43
2019-03-02T08:33:05.813Z,23.07
2019-03-02T08:35:34.938Z,24.60
2019-03-02T08:38:05.277Z,23.30
2019-03-02T08:40:34.702Z,22.30
2019-03-02T08:43:04.072Z,23.20
2019-03-02T08:45:33.354Z,22.30
2019-03-02T08:48:02.418Z,23.90
2019-03-02T08:50:31.443Z,23.00
2019-03-02T08:53:00.683Z,21.40
2019-03-02T08:55:33.139Z,23.00
2019-03-02T08:58:00.657Z,22.50
2019-03-02T09:00:30.111Z,21.50
2019-03-02T09:03:00.499Z,20.37
2019-03-02T09:05:43.544Z,22.90
2019-03-02T09:08:00.869Z,21.33
2019-03-02T09:10:30.184Z,23.87
2019-03-02T09:12:59.801Z,22.63
2019-03-02T09:15:30.228Z,21.93
2019-03-02T09:17:59.508Z,20.30
2019-03-02T09:20:28.536Z,19.47
2019-03-02T09:23:00.500Z,18.87
2019-03-02T09:25:29.622Z,19.43
2019-03-02T09:27:58.742Z,19.60
2019-03-02T09:30:28.144Z,17.63
2019-03-02T09:32:58.307Z,17.97
2019-03-02T09:35:27.601Z,18.73
2019-03-02T09:37:56.651Z,17.67
2019-03-02T09:40:25.786Z,19.17
2019-03-02T09:42:54.868Z,18.67
2019-03-02T09:45:23.961Z,19.50
2019-03-02T09:47:53.036Z,18.33
2019-03-02T09:50:22.286Z,18.70
2019-03-02T09:52:51.811Z,17.43
2019-03-02T09:55:21.333Z,19.50
2019-03-02T09:57:50.826Z,17.50
2019-03-02T10:00:23.910Z,17.87
2019-03-02T10:02:52.114Z,16.90
2019-03-02T10:05:21.875Z,17.30
2019-03-02T10:07:51.221Z,17.67
2019-03-02T10:10:20.630Z,17.63
2019-03-02T10:12:51.735Z,17.53
2019-03-02T10:15:21.773Z,17.77
2019-03-02T10:17:51.059Z,15.90
2019-03-02T10:20:20.458Z,17.57
2019-03-02T10:22:50.611Z,18.10
2019-03-02T10:25:20.169Z,17.60
2019-03-02T10:27:49.393Z,17.30
2019-03-02T10:30:22.164Z,16.30
2019-03-02T10:32:51.878Z,16.60
2019-03-02T10:35:20.768Z,16.40
2019-03-02T10:37:50.099Z,15.40
2019-03-02T10:40:19.225Z,15.97
2019-03-02T10:42:48.228Z,16.37
2019-03-02T10:45:17.531Z,14.83
2019-03-02T10:47:46.584Z,16.10
2019-03-02T10:50:19.675Z,15.07
2019-03-02T10:52:48.924Z,16.00
2019-03-02T10:55:18.963Z,14.37
2019-03-02T10:57:48.373Z,13.60
2019-03-02T11:00:25.093Z,16.17
2019-03-02T11:02:55.927Z,15.03
2019-03-02T11:05:42.245Z,14.47
2019-03-02T11:08:45.828Z,13.10
2019-03-02T11:11:25.679Z,14.93
2019-03-02T11:14:09.982Z,14.73
2019-03-02T11:17:13.779Z,12.77
2019-03-02T11:20:04.913Z,14.50
2019-03-02T11:22:58.576Z,13.97
2019-03-02T11:25:48.094Z,13.47
2019-03-02T11:28:39.523Z,13.30
2019-03-02T11:31:27.684Z,15.17
2019-03-02T11:34:18.235Z,14.00
2019-03-02T11:37:04.503Z,13.00
2019-03-02T11:39:54.613Z,12.80
2019-03-02T11:42:39.874Z,13.00
2019-03-02T11:45:30.807Z,12.40
2019-03-02T11:48:23.251Z,12.43
2019-03-02T11:51:09.642Z,14.20
2019-03-02T11:54:02.909Z,14.60
2019-03-02T11:56:51.281Z,14.30
2019-03-02T11:59:51.686Z,14.60
2019-03-02T12:02:38.356Z,12.80
2019-03-02T12:05:41.810Z,13.27
2019-03-02T12:08:42.469Z,15.50
2019-03-02T12:11:42.842Z,13.80
2019-03-02T12:14:36.281Z,13.93
2019-03-02T12:17:27.668Z,14.43
2019-03-02T12:20:34.279Z,12.97
2019-03-02T12:23:25.186Z,13.30
2019-03-02T12:26:07.756Z,13.10
2019-03-02T12:29:00.128Z,11.97
2019-03-02T12:31:38.786Z,13.50
2019-03-02T12:34:27.119Z,12.73
2019-03-02T12:37:01.508Z,13.27
2019-03-02T12:39:56.690Z,12.60
2019-03-02T12:42:40.872Z,12.43
2019-03-02T12:45:44.645Z,13.77
2019-03-02T12:48:38.919Z,13.37
2019-03-02T12:51:27.163Z,13.23
2019-03-02T12:54:10.228Z,14.33
2019-03-02T12:56:57.233Z,15.63
2019-03-02T12:59:45.632Z,15.80
2019-03-02T13:02:44.281Z,13.97
2019-03-02T13:05:36.505Z,14.20
2019-03-02T13:08:16.755Z,12.90
2019-03-02T13:11:02.034Z,12.77
2019-03-02T13:13:49.209Z,13.10
2019-03-02T13:16:50.163Z,13.70
2019-03-02T13:19:41.535Z,13.13
2019-03-02T13:22:36.450Z,14.33
2019-03-02T13:25:30.215Z,13.40
2019-03-02T13:28:17.877Z,13.13
2019-03-02T13:31:23.746Z,13.47
2019-03-02T13:34:14.577Z,14.50
2019-03-02T13:37:07.859Z,13.17
2019-03-02T13:40:00.062Z,13.17
2019-03-02T13:42:46.912Z,11.40
2019-03-02T13:45:29.568Z,13.70
2019-03-02T13:48:22.219Z,12.97
2019-03-02T13:51:13.950Z,12.83
2019-03-02T13:53:53.556Z,12.97
2019-03-02T13:56:40.343Z,13.40
2019-03-02T13:59:34.377Z,12.57
2019-03-02T14:02:29.251Z,11.67
2019-03-02T14:05:29.730Z,13.67
2019-03-02T14:08:21.459Z,12.57
2019-03-02T14:11:04.851Z,13.23
2019-03-02T14:13:53.443Z,13.77
2019-03-02T14:16:36.866Z,12.00
2019-03-02T14:19:31.334Z,12.97
2019-03-02T14:22:25.490Z,12.70
2019-03-02T14:25:19.102Z,13.73
2019-03-02T14:28:04.799Z,14.53
2019-03-02T14:30:48.901Z,12.13
2019-03-02T14:33:25.756Z,11.47
2019-03-02T14:36:23.746Z,11.50
2019-03-02T14:39:05.306Z,12.30
2019-03-02T14:41:52.110Z,12.03
2019-03-02T14:44:40.613Z,12.47
2019-03-02T14:47:20.041Z,13.13
2019-03-02T14:50:14.512Z,13.20
2019-03-02T14:53:01.243Z,12.83
2019-03-02T14:56:01.612Z,13.80
2019-03-02T14:59:10.216Z,13.10
2019-03-02T15:01:56.010Z,11.23
2019-03-02T15:05:03.126Z,12.43
2019-03-02T15:07:55.292Z,13.30
2019-03-02T15:10:50.831Z,12.80
2019-03-02T15:13:30.679Z,13.37
2019-03-02T15:16:17.442Z,13.20
2019-03-02T15:19:06.521Z,12.00
2019-03-02T15:21:44.344Z,12.13
2019-03-02T15:24:29.625Z,11.37
2019-03-02T15:27:06.747Z,12.83
2019-03-02T15:30:06.962Z,11.53
2019-03-02T15:32:58.828Z,10.90
2019-03-02T15:36:07.225Z,12.30
2019-03-02T15:38:49.954Z,12.20
2019-03-02T15:41:32.232Z,11.87
2019-03-02T15:44:17.796Z,12.43
2019-03-02T15:47:18.508Z,11.93
2019-03-02T15:50:05.206Z,11.90
2019-03-02T15:52:56.566Z,13.20
2019-03-02T15:55:53.196Z,10.90
2019-03-02T15:58:40.961Z,12.63
2019-03-02T16:01:15.573Z,14.07
2019-03-02T16:04:13.022Z,12.07
2019-03-02T16:07:02.069Z,14.03
2019-03-02T16:09:40.420Z,12.80
2019-03-02T16:12:22.616Z,11.50
2019-03-02T16:15:13.717Z,12.40
2019-03-02T16:17:58.850Z,14.37
2019-03-02T16:20:42.611Z,10.87
2019-03-02T16:23:31.530Z,11.33
2019-03-02T16:26:13.010Z,11.90
2019-03-02T16:28:53.005Z,10.93
2019-03-02T16:31:47.708Z,10.30
2019-03-02T16:34:47.373Z,10.97
2019-03-02T16:37:27.787Z,10.83
2019-03-02T16:40:07.329Z,10.00
2019-03-02T16:42:50.738Z,9.80
2019-03-02T16:45:40.567Z,11.13
2019-03-02T16:48:32.191Z,11.77
2019-03-02T16:51:10.755Z,10.53
2019-03-02T16:54:17.531Z,9.37
2019-03-02T16:57:04.104Z,10.40
2019-03-02T16:59:58.693Z,11.17
2019-03-02T17:02:59.278Z,10.43
2019-03-02T17:05:38.867Z,11.23
2019-03-02T17:08:14.374Z,10.90
2019-03-02T17:10:56.083Z,12.40
2019-03-02T17:13:47.553Z,10.40
2019-03-02T17:16:36.999Z,10.50
2019-03-02T17:19:16.843Z,10.10
2019-03-02T17:21:59.730Z,11.77
2019-03-02T17:24:58.462Z,11.73
2019-03-02T17:27:44.190Z,12.60
2019-03-02T17:30:26.358Z,10.97
2019-03-02T17:33:10.065Z,11.60
2019-03-02T17:36:10.153Z,10.43
2019-03-02T17:38:57.277Z,10.17
2019-03-02T17:41:32.927Z,12.63
2019-03-02T17:44:24.280Z,11.03
2019-03-02T17:47:05.286Z,12.53
2019-03-02T17:49:56.877Z,11.57
2019-03-02T17:52:46.808Z,10.73
2019-03-02T17:55:50.228Z,12.40
2019-03-02T17:58:37.710Z,11.10
2019-03-02T18:01:22.956Z,11.03
2019-03-02T18:04:02.708Z,10.73
2019-03-02T18:07:01.413Z,10.40
2019-03-02T18:09:50.348Z,10.10
2019-03-02T18:12:29.463Z,12.17
2019-03-02T18:15:25.957Z,10.97
2019-03-02T18:18:00.954Z,11.20
2019-03-02T18:20:31.215Z,12.00
2019-03-02T18:23:00.675Z,9.50
2019-03-02T18:25:29.417Z,10.70
2019-03-02T18:28:01.404Z,12.00
2019-03-02T18:30:31.881Z,9.50
2019-03-02T18:33:11.225Z,10.13
2019-03-02T18:35:40.812Z,10.63
2019-03-02T18:38:13.295Z,10.10
2019-03-02T18:40:42.108Z,10.30
2019-03-02T18:43:11.637Z,10.67
2019-03-02T18:45:42.403Z,10.43
2019-03-02T18:48:21.379Z,10.70
2019-03-02T18:50:59.566Z,10.30
2019-03-02T18:53:34.833Z,10.33
2019-03-02T18:56:01.295Z,10.73
2019-03-02T18:58:31.364Z,11.30
2019-03-02T19:01:02.958Z,11.20
2019-03-02T19:03:32.722Z,9.97
2019-03-02T19:06:01.863Z,10.90
2019-03-02T19:08:30.872Z,10.63
2019-03-02T19:11:00.834Z,12.73
2019-03-02T19:13:31.799Z,11.00
2019-03-02T19:16:00.934Z,11.30
2019-03-02T19:18:32.339Z,11.47
2019-03-02T19:21:01.932Z,11.33
2019-03-02T19:23:31.193Z,11.20
2019-03-02T19:26:03.055Z,11.10
2019-03-02T19:28:31.787Z,13.10
2019-03-02T19:31:01.123Z,12.10
2019-03-02T19:33:30.116Z,12.67
2019-03-02T19:35:59.771Z,12.97
2019-03-02T19:38:31.247Z,12.30
2019-03-02T19:41:00.982Z,12.50
2019-03-02T19:43:30.508Z,12.17
2019-03-02T19:46:02.536Z,12.00
2019-03-02T19:48:31.474Z,13.37
2019-03-02T19:51:01.768Z,13.50
2019-03-02T19:53:31.270Z,11.73
2019-03-02T19:56:00.954Z,11.70
2019-03-02T19:58:30.797Z,11.67
2019-03-02T20:01:00.041Z,11.70
2019-03-02T20:03:29.826Z,14.00
2019-03-02T20:05:58.838Z,13.10
2019-03-02T20:08:28.131Z,11.70
2019-03-02T20:10:57.467Z,12.03
2019-03-02T20:13:26.520Z,12.23
2019-03-02T20:15:56.228Z,11.47
2019-03-02T20:18:26.240Z,12.97
2019-03-02T20:20:55.582Z,13.60
2019-03-02T20:23:25.118Z,13.30
2019-03-02T20:25:54.110Z,12.30
2019-03-02T20:28:23.596Z,14.57
2019-03-02T20:30:52.920Z,13.47
2019-03-02T20:33:22.198Z,12.90
2019-03-02T20:35:51.924Z,14.10
2019-03-02T20:38:21.548Z,12.53
2019-03-02T20:40:52.900Z,13.87
2019-03-02T20:43:21.357Z,13.47
2019-03-02T20:45:50.443Z,12.47
2019-03-02T20:48:19.781Z,13.30
2019-03-02T20:50:50.947Z,14.90
2019-03-02T20:53:20.065Z,14.03
2019-03-02T20:55:49.445Z,13.20
2019-03-02T20:58:19.331Z,15.43
2019-03-02T21:00:48.633Z,14.47
2019-03-02T21:03:19.291Z,14.90
2019-03-02T21:05:48.275Z,13.77
2019-03-02T21:08:17.697Z,13.93
2019-03-02T21:10:46.914Z,14.20
2019-03-02T21:13:16.773Z,13.27
2019-03-02T21:15:45.997Z,13.73
2019-03-02T21:18:15.074Z,14.43
2019-03-02T21:20:44.602Z,14.43
2019-03-02T21:23:14.025Z,14.93
2019-03-02T21:25:43.299Z,13.97
2019-03-02T21:28:12.365Z,15.60
2019-03-02T21:30:41.752Z,14.63
2019-03-02T21:33:12.063Z,14.73
2019-03-02T21:35:41.840Z,14.00
2019-03-02T21:38:11.190Z,14.27
2019-03-02T21:40:40.571Z,12.27
2019-03-02T21:43:10.005Z,13.57
2019-03-02T21:45:41.457Z,14.07
2019-03-02T21:48:10.582Z,11.80
2019-03-02T21:50:39.817Z,12.47
2019-03-02T21:53:08.946Z,12.73
2019-03-02T21:55:38.174Z,13.10
2019-03-02T21:58:07.111Z,12.40
2019-03-02T22:00:36.465Z,10.93
2019-03-02T22:03:05.918Z,11.50
2019-03-02T22:05:35.026Z,11.10
2019-03-02T22:08:05.970Z,12.50
2019-03-02T22:10:40.343Z,12.10
2019-03-02T22:13:10.269Z,11.87
2019-03-02T22:15:40.190Z,10.37
2019-03-02T22:18:09.746Z,10.23
2019-03-02T22:20:40.145Z,11.37
2019-03-02T22:23:09.345Z,10.90
2019-03-02T22:25:38.920Z,12.10
2019-03-02T22:28:09.261Z,10.10
2019-03-02T22:30:38.325Z,11.63
2019-03-02T22:33:09.489Z,8.60
2019-03-02T22:35:38.543Z,8.83
2019-03-02T22:38:07.557Z,9.13
2019-03-02T22:40:36.918Z,9.70
2019-03-02T22:43:07.184Z,10.00
2019-03-02T22:45:36.858Z,9.90
2019-03-02T22:48:11.577Z,9.00
2019-03-02T22:50:41.695Z,9.43
2019-03-02T22:53:11.837Z,10.20
2019-03-02T22:55:47.681Z,9.67
2019-03-02T22:58:18.528Z,8.77
2019-03-02T23:01:07.680Z,8.00
2019-03-02T23:03:40.987Z,8.00
2019-03-02T23:06:13.557Z,8.30
2019-03-02T23:08:47.783Z,7.97
2019-03-02T23:11:17.898Z,8.23
2019-03-02T23:13:51.146Z,7.43
2019-03-02T23:16:23.082Z,6.63
2019-03-02T23:18:52.768Z,8.30
2019-03-02T23:21:24.417Z,8.83
2019-03-02T23:23:53.928Z,7.23
2019-03-02T23:26:23.805Z,6.63
2019-03-02T23:28:53.970Z,6.87
2019-03-02T23:31:23.443Z,7.83
2019-03-02T23:33:52.818Z,8.33
2019-03-02T23:36:26.133Z,7.57
2019-03-02T23:38:58.878Z,7.00
2019-03-02T23:41:28.677Z,7.30
2019-03-02T23:43:57.967Z,6.90
2019-03-02T23:46:27.275Z,7.60
2019-03-02T23:48:59.704Z,6.93
2019-03-02T23:51:29.464Z,7.73
2019-03-02T23:53:58.850Z,6.70
2019-03-02T23:56:37.941Z,6.73
2019-03-02T23:59:08.362Z,7.30
